sensor_id;sensor_type;location;lat;lon;timestamp;temperature;humidity
42019;DHT22;27703;51.980;5.848;2023-07-20T00:01:53;18.60;99.40
42019;DHT22;27703;51.980;5.848;2023-07-20T00:04:19;18.50;99.50
42019;DHT22;27703;51.980;5.848;2023-07-20T00:06:45;18.60;99.50
42019;DHT22;27703;51.980;5.848;2023-07-20T00:09:10;18.50;99.50
42019;DHT22;27703;51.980;5.848;2023-07-20T00:11:37;18.50;99.50
42019;DHT22;27703;51.980;5.848;2023-07-20T00:14:04;18.50;99.60
42019;DHT22;27703;51.980;5.848;2023-07-20T00:16:30;18.40;99.60
42019;DHT22;27703;51.980;5.848;2023-07-20T00:18:55;18.40;99.70
42019;DHT22;27703;51.980;5.848;2023-07-20T00:21:21;18.40;99.70
42019;DHT22;27703;51.980;5.848;2023-07-20T00:23:47;18.40;99.70
42019;DHT22;27703;51.980;5.848;2023-07-20T00:26:12;18.40;99.90
42019;DHT22;27703;51.980;5.848;2023-07-20T00:28:38;18.40;99.70
42019;DHT22;27703;51.980;5.848;2023-07-20T00:31:04;18.40;99.70
42019;DHT22;27703;51.980;5.848;2023-07-20T00:33:30;18.40;99.80
42019;DHT22;27703;51.980;5.848;2023-07-20T00:35:56;18.30;99.80
42019;DHT22;27703;51.980;5.848;2023-07-20T00:38:21;18.30;99.90
42019;DHT22;27703;51.980;5.848;2023-07-20T00:40:47;18.20;99.90
42019;DHT22;27703;51.980;5.848;2023-07-20T00:43:13;18.20;99.90
42019;DHT22;27703;51.980;5.848;2023-07-20T00:45:39;18.20;99.90
42019;DHT22;27703;51.980;5.848;2023-07-20T00:48:07;18.10;99.90
42019;DHT22;27703;51.980;5.848;2023-07-20T00:50:33;18.10;99.90
42019;DHT22;27703;51.980;5.848;2023-07-20T00:52:59;18.10;99.90
42019;DHT22;27703;51.980;5.848;2023-07-20T00:55:26;18.10;99.90
42019;DHT22;27703;51.980;5.848;2023-07-20T00:57:52;18.00;99.90
42019;DHT22;27703;51.980;5.848;2023-07-20T01:00:18;18.00;99.90
42019;DHT22;27703;51.980;5.848;2023-07-20T01:02:44;18.00;99.90
42019;DHT22;27703;51.980;5.848;2023-07-20T01:05:10;18.00;99.90
42019;DHT22;27703;51.980;5.848;2023-07-20T01:07:55;17.90;99.90
42019;DHT22;27703;51.980;5.848;2023-07-20T01:13:06;17.90;99.90
42019;DHT22;27703;51.980;5.848;2023-07-20T01:15:34;17.90;99.90
42019;DHT22;27703;51.980;5.848;2023-07-20T01:17:59;17.90;99.90
42019;DHT22;27703;51.980;5.848;2023-07-20T01:20:27;17.90;99.90
42019;DHT22;27703;51.980;5.848;2023-07-20T01:28:26;17.90;99.90
42019;DHT22;27703;51.980;5.848;2023-07-20T01:33:42;17.90;99.90
42019;DHT22;27703;51.980;5.848;2023-07-20T01:36:10;17.90;99.90
42019;DHT22;27703;51.980;5.848;2023-07-20T01:38:37;17.80;99.90
42019;DHT22;27703;51.980;5.848;2023-07-20T01:41:03;17.80;99.90
42019;DHT22;27703;51.980;5.848;2023-07-20T01:43:29;17.80;99.90
42019;DHT22;27703;51.980;5.848;2023-07-20T01:45:54;17.80;99.90
42019;DHT22;27703;51.980;5.848;2023-07-20T01:48:20;17.80;99.90
42019;DHT22;27703;51.980;5.848;2023-07-20T01:50:45;17.90;99.90
42019;DHT22;27703;51.980;5.848;2023-07-20T01:53:11;17.80;99.90
42019;DHT22;27703;51.980;5.848;2023-07-20T01:55:37;17.80;99.90
42019;DHT22;27703;51.980;5.848;2023-07-20T01:58:02;17.70;99.90
42019;DHT22;27703;51.980;5.848;2023-07-20T02:00:29;17.70;99.90
42019;DHT22;27703;51.980;5.848;2023-07-20T02:02:54;17.70;99.90
42019;DHT22;27703;51.980;5.848;2023-07-20T02:05:20;17.70;99.90
42019;DHT22;27703;51.980;5.848;2023-07-20T02:07:45;17.60;99.90
42019;DHT22;27703;51.980;5.848;2023-07-20T02:10:11;17.60;99.90
42019;DHT22;27703;51.980;5.848;2023-07-20T02:12:37;17.50;99.90
42019;DHT22;27703;51.980;5.848;2023-07-20T02:15:03;17.50;99.90
42019;DHT22;27703;51.980;5.848;2023-07-20T02:17:29;17.40;99.90
42019;DHT22;27703;51.980;5.848;2023-07-20T02:19:56;17.40;99.90
42019;DHT22;27703;51.980;5.848;2023-07-20T02:22:23;17.40;99.90
42019;DHT22;27703;51.980;5.848;2023-07-20T02:24:48;17.40;99.90
42019;DHT22;27703;51.980;5.848;2023-07-20T02:27:15;17.40;99.90
42019;DHT22;27703;51.980;5.848;2023-07-20T02:29:41;17.30;99.90
42019;DHT22;27703;51.980;5.848;2023-07-20T02:32:07;17.30;99.90
42019;DHT22;27703;51.980;5.848;2023-07-20T02:34:33;17.30;99.90
42019;DHT22;27703;51.980;5.848;2023-07-20T02:36:59;17.30;99.90
42019;DHT22;27703;51.980;5.848;2023-07-20T02:39:27;17.40;99.90
42019;DHT22;27703;51.980;5.848;2023-07-20T02:41:53;17.40;99.90
42019;DHT22;27703;51.980;5.848;2023-07-20T02:44:19;17.40;99.90
42019;DHT22;27703;51.980;5.848;2023-07-20T02:46:44;17.30;99.90
42019;DHT22;27703;51.980;5.848;2023-07-20T02:49:10;17.30;99.90
42019;DHT22;27703;51.980;5.848;2023-07-20T02:51:36;17.30;99.90
42019;DHT22;27703;51.980;5.848;2023-07-20T02:54:01;17.30;99.90
42019;DHT22;27703;51.980;5.848;2023-07-20T02:56:27;17.20;99.90
42019;DHT22;27703;51.980;5.848;2023-07-20T02:58:52;17.20;99.90
42019;DHT22;27703;51.980;5.848;2023-07-20T03:01:18;17.20;99.90
42019;DHT22;27703;51.980;5.848;2023-07-20T03:03:44;17.10;99.90
42019;DHT22;27703;51.980;5.848;2023-07-20T03:06:16;17.10;99.90
42019;DHT22;27703;51.980;5.848;2023-07-20T03:08:42;17.10;99.90
42019;DHT22;27703;51.980;5.848;2023-07-20T03:11:15;17.00;99.90
42019;DHT22;27703;51.980;5.848;2023-07-20T03:13:42;17.00;99.90
42019;DHT22;27703;51.980;5.848;2023-07-20T03:16:08;16.90;99.90
42019;DHT22;27703;51.980;5.848;2023-07-20T03:18:39;16.90;99.90
42019;DHT22;27703;51.980;5.848;2023-07-20T03:21:06;16.90;99.90
42019;DHT22;27703;51.980;5.848;2023-07-20T03:23:32;16.80;99.90
42019;DHT22;27703;51.980;5.848;2023-07-20T03:25:58;16.80;99.90
42019;DHT22;27703;51.980;5.848;2023-07-20T03:28:24;16.70;99.90
42019;DHT22;27703;51.980;5.848;2023-07-20T03:30:59;16.80;99.90
42019;DHT22;27703;51.980;5.848;2023-07-20T03:33:28;16.80;99.90
42019;DHT22;27703;51.980;5.848;2023-07-20T03:35:55;16.80;99.90
42019;DHT22;27703;51.980;5.848;2023-07-20T03:38:21;16.80;99.90
42019;DHT22;27703;51.980;5.848;2023-07-20T03:40:55;16.80;99.90
42019;DHT22;27703;51.980;5.848;2023-07-20T03:43:25;16.80;99.90
42019;DHT22;27703;51.980;5.848;2023-07-20T03:45:51;16.70;99.90
42019;DHT22;27703;51.980;5.848;2023-07-20T03:48:18;16.70;99.90
42019;DHT22;27703;51.980;5.848;2023-07-20T03:50:45;16.60;99.90
42019;DHT22;27703;51.980;5.848;2023-07-20T03:53:11;16.60;99.90
42019;DHT22;27703;51.980;5.848;2023-07-20T03:55:37;16.60;99.90
42019;DHT22;27703;51.980;5.848;2023-07-20T03:58:03;16.50;99.90
42019;DHT22;27703;51.980;5.848;2023-07-20T04:00:29;16.50;99.90
42019;DHT22;27703;51.980;5.848;2023-07-20T04:02:54;16.40;99.90
42019;DHT22;27703;51.980;5.848;2023-07-20T04:05:20;16.30;99.90
42019;DHT22;27703;51.980;5.848;2023-07-20T04:07:46;16.20;99.90
42019;DHT22;27703;51.980;5.848;2023-07-20T04:10:12;16.20;99.90
42019;DHT22;27703;51.980;5.848;2023-07-20T04:12:37;16.20;99.90
42019;DHT22;27703;51.980;5.848;2023-07-20T04:15:03;16.20;99.90
42019;DHT22;27703;51.980;5.848;2023-07-20T04:17:29;16.20;99.90
42019;DHT22;27703;51.980;5.848;2023-07-20T04:19:55;16.20;99.90
42019;DHT22;27703;51.980;5.848;2023-07-20T04:22:20;16.20;99.90
42019;DHT22;27703;51.980;5.848;2023-07-20T04:24:47;16.20;99.90
42019;DHT22;27703;51.980;5.848;2023-07-20T04:27:12;16.30;99.90
42019;DHT22;27703;51.980;5.848;2023-07-20T04:29:38;16.30;99.90
42019;DHT22;27703;51.980;5.848;2023-07-20T04:32:04;16.40;99.90
42019;DHT22;27703;51.980;5.848;2023-07-20T04:34:29;16.30;99.90
42019;DHT22;27703;51.980;5.848;2023-07-20T04:36:55;16.30;99.90
42019;DHT22;27703;51.980;5.848;2023-07-20T04:39:20;16.30;99.90
42019;DHT22;27703;51.980;5.848;2023-07-20T04:41:46;16.30;99.90
42019;DHT22;27703;51.980;5.848;2023-07-20T04:44:13;16.30;99.90
42019;DHT22;27703;51.980;5.848;2023-07-20T04:46:39;16.30;99.90
42019;DHT22;27703;51.980;5.848;2023-07-20T04:49:05;16.30;99.90
42019;DHT22;27703;51.980;5.848;2023-07-20T04:51:31;16.30;99.90
42019;DHT22;27703;51.980;5.848;2023-07-20T04:53:57;16.30;99.90
42019;DHT22;27703;51.980;5.848;2023-07-20T04:56:23;16.40;99.90
42019;DHT22;27703;51.980;5.848;2023-07-20T04:58:50;16.40;99.90
42019;DHT22;27703;51.980;5.848;2023-07-20T05:01:15;16.30;99.90
42019;DHT22;27703;51.980;5.848;2023-07-20T05:03:41;16.40;99.90
42019;DHT22;27703;51.980;5.848;2023-07-20T05:06:06;16.40;99.90
42019;DHT22;27703;51.980;5.848;2023-07-20T05:08:32;16.40;99.90
42019;DHT22;27703;51.980;5.848;2023-07-20T05:10:58;16.40;99.90
42019;DHT22;27703;51.980;5.848;2023-07-20T05:13:24;16.40;99.90
42019;DHT22;27703;51.980;5.848;2023-07-20T05:15:53;16.50;99.90
42019;DHT22;27703;51.980;5.848;2023-07-20T05:18:19;16.50;99.90
42019;DHT22;27703;51.980;5.848;2023-07-20T05:20:49;16.50;99.90
42019;DHT22;27703;51.980;5.848;2023-07-20T05:23:17;16.50;99.90
42019;DHT22;27703;51.980;5.848;2023-07-20T05:25:42;16.50;99.90
42019;DHT22;27703;51.980;5.848;2023-07-20T05:28:08;16.50;99.90
42019;DHT22;27703;51.980;5.848;2023-07-20T05:30:34;16.60;99.90
42019;DHT22;27703;51.980;5.848;2023-07-20T05:32:59;16.70;99.90
42019;DHT22;27703;51.980;5.848;2023-07-20T05:35:26;16.70;99.90
42019;DHT22;27703;51.980;5.848;2023-07-20T05:37:51;16.80;99.90
42019;DHT22;27703;51.980;5.848;2023-07-20T05:40:17;16.80;99.90
42019;DHT22;27703;51.980;5.848;2023-07-20T05:42:45;16.90;99.90
42019;DHT22;27703;51.980;5.848;2023-07-20T05:45:11;17.00;99.90
42019;DHT22;27703;51.980;5.848;2023-07-20T05:47:37;17.00;99.90
42019;DHT22;27703;51.980;5.848;2023-07-20T05:50:03;17.10;99.90
42019;DHT22;27703;51.980;5.848;2023-07-20T05:52:29;17.10;99.90
42019;DHT22;27703;51.980;5.848;2023-07-20T05:54:54;17.20;99.90
42019;DHT22;27703;51.980;5.848;2023-07-20T05:57:20;17.30;99.90
42019;DHT22;27703;51.980;5.848;2023-07-20T05:59:46;17.30;99.90
42019;DHT22;27703;51.980;5.848;2023-07-20T06:02:11;17.40;99.90
42019;DHT22;27703;51.980;5.848;2023-07-20T06:04:38;17.40;99.90
42019;DHT22;27703;51.980;5.848;2023-07-20T06:07:04;17.40;99.90
42019;DHT22;27703;51.980;5.848;2023-07-20T06:09:30;17.30;99.90
42019;DHT22;27703;51.980;5.848;2023-07-20T06:11:56;17.40;99.90
42019;DHT22;27703;51.980;5.848;2023-07-20T06:14:22;17.40;99.90
42019;DHT22;27703;51.980;5.848;2023-07-20T06:16:47;17.50;99.90
42019;DHT22;27703;51.980;5.848;2023-07-20T06:19:13;17.60;99.90
42019;DHT22;27703;51.980;5.848;2023-07-20T06:21:39;17.60;99.90
42019;DHT22;27703;51.980;5.848;2023-07-20T06:24:05;17.70;99.90
42019;DHT22;27703;51.980;5.848;2023-07-20T06:26:30;17.70;99.90
42019;DHT22;27703;51.980;5.848;2023-07-20T06:28:56;17.70;99.90
42019;DHT22;27703;51.980;5.848;2023-07-20T06:31:22;17.70;99.90
42019;DHT22;27703;51.980;5.848;2023-07-20T06:33:48;17.70;99.90
42019;DHT22;27703;51.980;5.848;2023-07-20T06:36:17;17.70;99.90
42019;DHT22;27703;51.980;5.848;2023-07-20T06:38:43;17.90;99.90
42019;DHT22;27703;51.980;5.848;2023-07-20T06:41:08;17.90;99.90
42019;DHT22;27703;51.980;5.848;2023-07-20T06:43:34;17.90;99.90
42019;DHT22;27703;51.980;5.848;2023-07-20T06:46:00;17.90;99.90
42019;DHT22;27703;51.980;5.848;2023-07-20T06:48:26;18.00;99.90
42019;DHT22;27703;51.980;5.848;2023-07-20T06:50:51;18.00;99.90
42019;DHT22;27703;51.980;5.848;2023-07-20T06:53:17;18.00;99.90
42019;DHT22;27703;51.980;5.848;2023-07-20T06:55:43;18.10;99.90
42019;DHT22;27703;51.980;5.848;2023-07-20T06:58:09;18.10;99.90
42019;DHT22;27703;51.980;5.848;2023-07-20T07:00:35;18.10;99.90
42019;DHT22;27703;51.980;5.848;2023-07-20T07:03:00;18.20;99.90
42019;DHT22;27703;51.980;5.848;2023-07-20T07:05:26;18.20;99.90
42019;DHT22;27703;51.980;5.848;2023-07-20T07:07:51;18.20;99.90
42019;DHT22;27703;51.980;5.848;2023-07-20T07:10:17;18.30;99.90
42019;DHT22;27703;51.980;5.848;2023-07-20T07:12:43;18.40;99.90
42019;DHT22;27703;51.980;5.848;2023-07-20T07:15:09;18.50;99.90
42019;DHT22;27703;51.980;5.848;2023-07-20T07:17:36;18.50;99.90
42019;DHT22;27703;51.980;5.848;2023-07-20T07:20:02;18.60;99.90
42019;DHT22;27703;51.980;5.848;2023-07-20T07:22:29;18.70;99.70
42019;DHT22;27703;51.980;5.848;2023-07-20T07:24:55;18.80;98.80
42019;DHT22;27703;51.980;5.848;2023-07-20T07:27:21;18.70;99.00
42019;DHT22;27703;51.980;5.848;2023-07-20T07:29:47;18.70;99.10
42019;DHT22;27703;51.980;5.848;2023-07-20T07:32:13;18.90;99.10
42019;DHT22;27703;51.980;5.848;2023-07-20T07:34:39;19.10;99.00
42019;DHT22;27703;51.980;5.848;2023-07-20T07:37:05;19.20;98.80
42019;DHT22;27703;51.980;5.848;2023-07-20T07:39:31;19.30;98.80
42019;DHT22;27703;51.980;5.848;2023-07-20T07:41:57;19.40;98.70
42019;DHT22;27703;51.980;5.848;2023-07-20T07:44:23;19.60;98.50
42019;DHT22;27703;51.980;5.848;2023-07-20T07:46:49;19.60;98.60
42019;DHT22;27703;51.980;5.848;2023-07-20T07:49:15;19.70;98.20
42019;DHT22;27703;51.980;5.848;2023-07-20T07:51:40;19.90;98.10
42019;DHT22;27703;51.980;5.848;2023-07-20T07:54:06;20.00;97.80
42019;DHT22;27703;51.980;5.848;2023-07-20T07:56:32;20.10;97.60
42019;DHT22;27703;51.980;5.848;2023-07-20T07:58:57;20.10;97.20
42019;DHT22;27703;51.980;5.848;2023-07-20T08:01:23;20.10;97.00
42019;DHT22;27703;51.980;5.848;2023-07-20T08:03:49;20.20;96.90
42019;DHT22;27703;51.980;5.848;2023-07-20T08:06:15;20.30;96.90
42019;DHT22;27703;51.980;5.848;2023-07-20T08:08:41;20.40;96.80
42019;DHT22;27703;51.980;5.848;2023-07-20T08:11:07;20.40;96.40
42019;DHT22;27703;51.980;5.848;2023-07-20T08:13:33;20.50;96.30
42019;DHT22;27703;51.980;5.848;2023-07-20T08:16:00;20.50;96.30
42019;DHT22;27703;51.980;5.848;2023-07-20T08:18:27;20.60;96.10
42019;DHT22;27703;51.980;5.848;2023-07-20T08:20:53;20.70;96.00
42019;DHT22;27703;51.980;5.848;2023-07-20T08:23:19;20.90;95.80
42019;DHT22;27703;51.980;5.848;2023-07-20T08:25:45;21.00;95.60
42019;DHT22;27703;51.980;5.848;2023-07-20T08:28:15;21.00;95.60
42019;DHT22;27703;51.980;5.848;2023-07-20T08:30:48;21.20;95.30
42019;DHT22;27703;51.980;5.848;2023-07-20T08:33:16;21.30;95.00
42019;DHT22;27703;51.980;5.848;2023-07-20T08:35:43;21.40;94.90
42019;DHT22;27703;51.980;5.848;2023-07-20T08:38:09;21.40;94.60
42019;DHT22;27703;51.980;5.848;2023-07-20T08:40:40;21.50;94.50
42019;DHT22;27703;51.980;5.848;2023-07-20T08:43:06;21.60;94.50
42019;DHT22;27703;51.980;5.848;2023-07-20T08:45:36;21.70;94.20
42019;DHT22;27703;51.980;5.848;2023-07-20T08:48:05;21.60;94.10
42019;DHT22;27703;51.980;5.848;2023-07-20T08:50:31;21.50;94.10
42019;DHT22;27703;51.980;5.848;2023-07-20T08:52:59;21.30;94.10
42019;DHT22;27703;51.980;5.848;2023-07-20T08:55:26;21.10;94.00
42019;DHT22;27703;51.980;5.848;2023-07-20T08:57:57;20.80;94.10
42019;DHT22;27703;51.980;5.848;2023-07-20T09:00:24;20.70;94.20
42019;DHT22;27703;51.980;5.848;2023-07-20T09:02:52;20.60;94.20
42019;DHT22;27703;51.980;5.848;2023-07-20T09:05:18;20.70;94.00
42019;DHT22;27703;51.980;5.848;2023-07-20T09:07:44;20.90;93.60
42019;DHT22;27703;51.980;5.848;2023-07-20T09:10:10;21.00;93.40
42019;DHT22;27703;51.980;5.848;2023-07-20T09:12:40;21.10;93.20
42019;DHT22;27703;51.980;5.848;2023-07-20T09:15:07;21.20;93.10
42019;DHT22;27703;51.980;5.848;2023-07-20T09:17:33;21.30;92.80
42019;DHT22;27703;51.980;5.848;2023-07-20T09:20:02;21.40;92.50
42019;DHT22;27703;51.980;5.848;2023-07-20T09:22:31;21.50;92.40
42019;DHT22;27703;51.980;5.848;2023-07-20T09:24:58;21.50;92.20
42019;DHT22;27703;51.980;5.848;2023-07-20T09:27:41;21.60;91.80
42019;DHT22;27703;51.980;5.848;2023-07-20T09:30:07;21.60;91.80
42019;DHT22;27703;51.980;5.848;2023-07-20T09:32:42;21.80;91.60
42019;DHT22;27703;51.980;5.848;2023-07-20T09:35:19;22.00;91.10
42019;DHT22;27703;51.980;5.848;2023-07-20T09:40:20;22.20;90.70
42019;DHT22;27703;51.980;5.848;2023-07-20T09:42:46;22.30;90.20
42019;DHT22;27703;51.980;5.848;2023-07-20T09:45:13;22.40;90.20
42019;DHT22;27703;51.980;5.848;2023-07-20T09:47:39;22.50;90.00
42019;DHT22;27703;51.980;5.848;2023-07-20T09:50:05;22.20;90.00
42019;DHT22;27703;51.980;5.848;2023-07-20T09:52:39;21.80;90.30
42019;DHT22;27703;51.980;5.848;2023-07-20T09:55:07;21.50;90.70
42019;DHT22;27703;51.980;5.848;2023-07-20T09:57:34;21.20;90.90
42019;DHT22;27703;51.980;5.848;2023-07-20T10:00:00;21.00;91.00
42019;DHT22;27703;51.980;5.848;2023-07-20T10:02:33;20.80;91.30
42019;DHT22;27703;51.980;5.848;2023-07-20T10:05:02;20.80;91.40
42019;DHT22;27703;51.980;5.848;2023-07-20T10:07:30;20.70;91.40
42019;DHT22;27703;51.980;5.848;2023-07-20T10:09:56;20.60;91.40
42019;DHT22;27703;51.980;5.848;2023-07-20T10:12:25;20.70;91.40
42019;DHT22;27703;51.980;5.848;2023-07-20T10:15:12;20.80;91.30
42019;DHT22;27703;51.980;5.848;2023-07-20T10:18:17;20.80;91.20
42019;DHT22;27703;51.980;5.848;2023-07-20T10:20:38;20.90;91.30
42019;DHT22;27703;51.980;5.848;2023-07-20T10:23:05;21.10;91.30
42019;DHT22;27703;51.980;5.848;2023-07-20T10:25:31;21.40;91.00
42019;DHT22;27703;51.980;5.848;2023-07-20T10:27:58;21.80;90.70
42019;DHT22;27703;51.980;5.848;2023-07-20T10:30:25;21.90;90.70
42019;DHT22;27703;51.980;5.848;2023-07-20T10:32:51;22.00;90.60
42019;DHT22;27703;51.980;5.848;2023-07-20T10:35:18;22.10;90.80
42019;DHT22;27703;51.980;5.848;2023-07-20T10:40:38;22.10;90.40
42019;DHT22;27703;51.980;5.848;2023-07-20T10:43:08;22.10;90.50
42019;DHT22;27703;51.980;5.848;2023-07-20T10:45:48;22.10;90.50
42019;DHT22;27703;51.980;5.848;2023-07-20T10:50:45;22.50;90.30
42019;DHT22;27703;51.980;5.848;2023-07-20T10:53:12;22.60;89.20
42019;DHT22;27703;51.980;5.848;2023-07-20T10:55:39;22.50;89.60
42019;DHT22;27703;51.980;5.848;2023-07-20T10:58:14;22.20;89.40
42019;DHT22;27703;51.980;5.848;2023-07-20T11:01:07;22.00;90.00
42019;DHT22;27703;51.980;5.848;2023-07-20T11:03:35;21.80;90.30
42019;DHT22;27703;51.980;5.848;2023-07-20T11:08:49;21.70;90.50
42019;DHT22;27703;51.980;5.848;2023-07-20T11:11:29;21.70;90.60
42019;DHT22;27703;51.980;5.848;2023-07-20T11:13:56;21.70;90.20
42019;DHT22;27703;51.980;5.848;2023-07-20T11:16:42;21.70;90.50
42019;DHT22;27703;51.980;5.848;2023-07-20T11:19:25;22.00;90.60
42019;DHT22;27703;51.980;5.848;2023-07-20T11:21:55;22.20;90.30
42019;DHT22;27703;51.980;5.848;2023-07-20T11:24:22;22.30;90.20
42019;DHT22;27703;51.980;5.848;2023-07-20T11:26:57;22.30;90.10
42019;DHT22;27703;51.980;5.848;2023-07-20T11:29:23;22.40;89.90
42019;DHT22;27703;51.980;5.848;2023-07-20T11:31:50;22.60;89.40
42019;DHT22;27703;51.980;5.848;2023-07-20T11:34:20;22.60;89.00
42019;DHT22;27703;51.980;5.848;2023-07-20T11:36:51;22.70;88.60
42019;DHT22;27703;51.980;5.848;2023-07-20T11:39:18;22.60;88.60
42019;DHT22;27703;51.980;5.848;2023-07-20T11:41:52;22.50;88.80
42019;DHT22;27703;51.980;5.848;2023-07-20T11:44:18;22.30;89.40
42019;DHT22;27703;51.980;5.848;2023-07-20T11:46:45;22.20;89.70
42019;DHT22;27703;51.980;5.848;2023-07-20T11:49:11;22.10;90.00
42019;DHT22;27703;51.980;5.848;2023-07-20T11:51:38;22.30;90.00
42019;DHT22;27703;51.980;5.848;2023-07-20T11:54:07;22.60;90.00
42019;DHT22;27703;51.980;5.848;2023-07-20T11:56:33;22.90;88.80
42019;DHT22;27703;51.980;5.848;2023-07-20T11:58:59;23.00;88.00
42019;DHT22;27703;51.980;5.848;2023-07-20T12:01:27;23.20;88.00
42019;DHT22;27703;51.980;5.848;2023-07-20T12:04:01;23.40;87.90
42019;DHT22;27703;51.980;5.848;2023-07-20T12:06:28;23.70;87.50
42019;DHT22;27703;51.980;5.848;2023-07-20T12:08:57;23.70;86.90
42019;DHT22;27703;51.980;5.848;2023-07-20T12:11:37;23.40;86.00
42019;DHT22;27703;51.980;5.848;2023-07-20T12:14:04;22.90;86.70
42019;DHT22;27703;51.980;5.848;2023-07-20T12:16:31;22.80;87.70
42019;DHT22;27703;51.980;5.848;2023-07-20T12:19:08;23.10;87.40
42019;DHT22;27703;51.980;5.848;2023-07-20T12:21:34;23.50;87.20
42019;DHT22;27703;51.980;5.848;2023-07-20T12:24:02;24.00;86.90
42019;DHT22;27703;51.980;5.848;2023-07-20T12:26:30;24.40;86.00
42019;DHT22;27703;51.980;5.848;2023-07-20T12:28:56;24.60;85.70
42019;DHT22;27703;51.980;5.848;2023-07-20T12:31:22;24.60;85.70
42019;DHT22;27703;51.980;5.848;2023-07-20T12:33:49;24.70;85.10
42019;DHT22;27703;51.980;5.848;2023-07-20T12:36:15;24.80;84.10
42019;DHT22;27703;51.980;5.848;2023-07-20T12:38:40;25.00;82.70
42019;DHT22;27703;51.980;5.848;2023-07-20T12:41:09;25.00;82.70
42019;DHT22;27703;51.980;5.848;2023-07-20T12:43:34;25.10;82.60
42019;DHT22;27703;51.980;5.848;2023-07-20T12:46:00;25.20;80.70
42019;DHT22;27703;51.980;5.848;2023-07-20T12:48:26;25.10;79.80
42019;DHT22;27703;51.980;5.848;2023-07-20T12:50:51;25.00;78.90
42019;DHT22;27703;51.980;5.848;2023-07-20T12:53:18;24.90;77.70
42019;DHT22;27703;51.980;5.848;2023-07-20T12:55:44;25.00;78.20
42019;DHT22;27703;51.980;5.848;2023-07-20T12:58:11;25.10;77.50
42019;DHT22;27703;51.980;5.848;2023-07-20T13:00:36;25.20;75.60
42019;DHT22;27703;51.980;5.848;2023-07-20T13:03:02;25.30;75.00
42019;DHT22;27703;51.980;5.848;2023-07-20T13:05:32;25.10;75.20
42019;DHT22;27703;51.980;5.848;2023-07-20T13:07:58;24.90;76.10
42019;DHT22;27703;51.980;5.848;2023-07-20T13:10:24;24.90;76.70
42019;DHT22;27703;51.980;5.848;2023-07-20T13:12:50;24.90;76.10
42019;DHT22;27703;51.980;5.848;2023-07-20T13:15:17;25.00;76.00
42019;DHT22;27703;51.980;5.848;2023-07-20T13:17:42;25.00;76.20
42019;DHT22;27703;51.980;5.848;2023-07-20T13:20:09;25.00;76.50
42019;DHT22;27703;51.980;5.848;2023-07-20T13:22:36;25.00;77.30
42019;DHT22;27703;51.980;5.848;2023-07-20T13:25:02;24.80;77.70
42019;DHT22;27703;51.980;5.848;2023-07-20T13:27:28;24.70;78.40
42019;DHT22;27703;51.980;5.848;2023-07-20T13:29:53;24.50;78.20
42019;DHT22;27703;51.980;5.848;2023-07-20T13:32:19;24.50;79.10
42019;DHT22;27703;51.980;5.848;2023-07-20T13:34:45;24.40;79.20
42019;DHT22;27703;51.980;5.848;2023-07-20T13:37:11;24.50;79.10
42019;DHT22;27703;51.980;5.848;2023-07-20T13:39:37;24.50;79.70
42019;DHT22;27703;51.980;5.848;2023-07-20T13:42:04;24.40;79.80
42019;DHT22;27703;51.980;5.848;2023-07-20T13:44:31;24.40;79.90
42019;DHT22;27703;51.980;5.848;2023-07-20T13:46:57;24.40;79.90
42019;DHT22;27703;51.980;5.848;2023-07-20T13:49:22;24.40;80.00
42019;DHT22;27703;51.980;5.848;2023-07-20T13:51:48;24.30;79.70
42019;DHT22;27703;51.980;5.848;2023-07-20T13:54:14;24.30;79.60
42019;DHT22;27703;51.980;5.848;2023-07-20T13:56:39;24.30;79.50
42019;DHT22;27703;51.980;5.848;2023-07-20T13:59:05;24.30;79.20
42019;DHT22;27703;51.980;5.848;2023-07-20T14:01:31;24.20;79.20
42019;DHT22;27703;51.980;5.848;2023-07-20T14:03:59;24.20;79.40
42019;DHT22;27703;51.980;5.848;2023-07-20T14:06:25;24.10;78.90
42019;DHT22;27703;51.980;5.848;2023-07-20T14:08:51;24.00;79.20
42019;DHT22;27703;51.980;5.848;2023-07-20T14:11:18;23.90;79.40
42019;DHT22;27703;51.980;5.848;2023-07-20T14:13:44;23.90;79.30
42019;DHT22;27703;51.980;5.848;2023-07-20T14:16:09;23.80;79.40
42019;DHT22;27703;51.980;5.848;2023-07-20T14:18:35;23.70;79.80
42019;DHT22;27703;51.980;5.848;2023-07-20T14:21:01;23.70;80.20
42019;DHT22;27703;51.980;5.848;2023-07-20T14:23:28;23.80;80.30
42019;DHT22;27703;51.980;5.848;2023-07-20T14:25:54;23.80;80.40
42019;DHT22;27703;51.980;5.848;2023-07-20T14:28:20;23.90;80.10
42019;DHT22;27703;51.980;5.848;2023-07-20T14:30:46;23.80;79.70
42019;DHT22;27703;51.980;5.848;2023-07-20T14:33:11;23.80;79.60
42019;DHT22;27703;51.980;5.848;2023-07-20T14:35:37;23.80;79.40
42019;DHT22;27703;51.980;5.848;2023-07-20T14:38:02;23.80;79.50
42019;DHT22;27703;51.980;5.848;2023-07-20T14:40:28;23.70;79.50
42019;DHT22;27703;51.980;5.848;2023-07-20T14:42:55;23.80;79.50
42019;DHT22;27703;51.980;5.848;2023-07-20T14:45:21;24.10;78.70
42019;DHT22;27703;51.980;5.848;2023-07-20T14:47:46;24.20;78.10
42019;DHT22;27703;51.980;5.848;2023-07-20T14:50:14;24.40;78.20
42019;DHT22;27703;51.980;5.848;2023-07-20T14:52:40;24.20;78.10
42019;DHT22;27703;51.980;5.848;2023-07-20T14:55:05;24.20;78.10
42019;DHT22;27703;51.980;5.848;2023-07-20T14:57:31;24.10;78.20
42019;DHT22;27703;51.980;5.848;2023-07-20T14:59:56;24.30;78.20
42019;DHT22;27703;51.980;5.848;2023-07-20T15:02:22;24.60;77.10
42019;DHT22;27703;51.980;5.848;2023-07-20T15:04:51;24.90;76.20
42019;DHT22;27703;51.980;5.848;2023-07-20T15:07:19;25.10;76.30
42019;DHT22;27703;51.980;5.848;2023-07-20T15:09:45;25.40;75.90
42019;DHT22;27703;51.980;5.848;2023-07-20T15:12:11;25.50;75.40
42019;DHT22;27703;51.980;5.848;2023-07-20T15:14:41;25.50;74.40
42019;DHT22;27703;51.980;5.848;2023-07-20T15:17:07;25.50;74.60
42019;DHT22;27703;51.980;5.848;2023-07-20T15:19:33;25.60;74.60
42019;DHT22;27703;51.980;5.848;2023-07-20T15:21:59;25.50;74.10
42019;DHT22;27703;51.980;5.848;2023-07-20T15:24:25;25.40;74.80
42019;DHT22;27703;51.980;5.848;2023-07-20T15:26:51;25.20;75.10
42019;DHT22;27703;51.980;5.848;2023-07-20T15:29:16;25.00;75.40
42019;DHT22;27703;51.980;5.848;2023-07-20T15:31:42;24.90;75.50
42019;DHT22;27703;51.980;5.848;2023-07-20T15:34:07;24.70;76.00
42019;DHT22;27703;51.980;5.848;2023-07-20T15:36:33;24.70;75.50
42019;DHT22;27703;51.980;5.848;2023-07-20T15:38:58;24.70;75.40
42019;DHT22;27703;51.980;5.848;2023-07-20T15:41:24;24.60;75.40
42019;DHT22;27703;51.980;5.848;2023-07-20T15:43:50;24.50;75.40
42019;DHT22;27703;51.980;5.848;2023-07-20T15:48:46;24.30;75.80
42019;DHT22;27703;51.980;5.848;2023-07-20T15:51:12;24.10;76.40
42019;DHT22;27703;51.980;5.848;2023-07-20T15:53:39;23.90;77.00